Time;durP1;ratioP1;P1;durP2;ratioP2;P2;SDS_P1;SDS_P2;PMS_P1;PMS_P2;Temp;Humidity;BMP_temperature;BMP_pressure;BME280_temperature;BME280_humidity;BME280_pressure;Samples;Min_cycle;Max_cycle;Signal;HPM_P1;HPM_P2
2022/09/08 00:03:52;;;;;;;9.40;5.90;;;;;;;14.49;70.96;98491.00;110009;1273;1016374;-70
2022/09/08 00:09:48;;;;;;;12.50;5.50;;;;;;;14.41;71.03;98483.58;110016;1272;1019213;-71
2022/09/08 00:15:58;;;;;;;8.80;5.80;;;;;;;14.33;71.29;98472.36;110039;1273;1018838;-71
2022/09/08 00:28:48;;;;;;;8.40;5.40;;;;;;;14.16;71.68;98478.91;109835;1275;1017387;-71
2022/09/08 00:34:40;;;;;;;13.10;5.70;;;;;;;14.11;71.93;98478.60;109909;1276;1016624;-71
2022/09/08 00:46:42;;;;;;;14.60;6.40;;;;;;;14.01;72.43;98468.86;110304;1273;1018704;-72
2022/09/08 00:53:00;;;;;;;11.80;6.40;;;;;;;13.99;72.53;98450.23;109972;1273;1017159;-72
2022/09/08 00:59:25;;;;;;;10.80;6.60;;;;;;;13.97;72.57;98439.00;109889;1274;1019774;-72
2022/09/08 01:05:33;;;;;;;9.80;6.30;;;;;;;13.94;72.68;98440.02;109942;1273;1016334;-71
2022/09/08 01:19:18;;;;;;;9.60;6.50;;;;;;;13.80;72.94;98461.48;109899;1275;1016757;-71
2022/09/08 01:26:06;;;;;;;10.50;5.90;;;;;;;13.78;73.24;98461.31;110195;1273;1016899;-72
2022/09/08 01:32:15;;;;;;;;;;;;;;;;;;;;;
2022/09/08 01:38:41;;;;;;;;;;;;;;;;;;;;;
2022/09/08 01:45:02;;;;;;;14.80;7.80;;;;;;;13.65;73.41;98454.96;107726;1273;6386778;-71
2022/09/08 01:58:02;;;;;;;;;;;;;;;;;;;;;
2022/09/08 02:04:22;;;;;;;14.70;6.00;;;;;;;13.44;73.69;98432.70;110274;1273;1016397;-71
2022/09/08 02:10:46;;;;;;;10.70;6.00;;;;;;;13.42;73.70;98421.73;109976;1273;1016448;-72
2022/09/08 02:16:40;;;;;;;9.70;6.30;;;;;;;13.39;73.70;98418.91;109996;1273;1016283;-71
2022/09/08 02:36:34;;;;;;;13.70;6.70;;;;;;;13.23;73.90;98394.94;110010;1273;1016685;-71
2022/09/08 02:42:55;;;;;;;12.60;7.10;;;;;;;13.20;74.16;98391.48;110038;1273;1017189;-71
2022/09/08 02:49:32;;;;;;;10.90;6.30;;;;;;;13.15;74.22;98385.10;109904;1274;1018275;-71
2022/09/08 02:55:42;;;;;;;10.60;6.90;;;;;;;13.14;74.33;98384.72;110267;1273;1016091;-71
2022/09/08 03:01:43;;;;;;;12.80;6.70;;;;;;;13.12;74.51;98376.77;109902;1274;1016666;-72
2022/09/08 03:07:48;;;;;;;11.60;7.10;;;;;;;13.08;74.67;98381.67;110081;1274;1018979;-71
2022/09/08 03:14:34;;;;;;;10.90;6.80;;;;;;;13.05;74.75;98393.31;110023;1273;1017742;-71
2022/09/08 03:27:00;;;;;;;12.30;6.70;;;;;;;12.95;75.17;98378.55;110083;1274;1018598;-71
2022/09/08 03:33:10;;;;;;;11.90;6.80;;;;;;;12.92;75.28;98380.88;110105;1274;1016677;-70
2022/09/08 03:39:16;;;;;;;12.70;7.20;;;;;;;12.87;75.46;98373.41;109854;1275;1017195;-70
2022/09/08 03:45:38;;;;;;;10.40;6.20;;;;;;;12.80;75.60;98372.03;109835;1273;1018720;-71
2022/09/08 03:51:38;;;;;;;12.30;6.40;;;;;;;12.70;75.81;98368.81;110121;1273;1019258;-71
2022/09/08 03:57:54;;;;;;;14.40;7.20;;;;;;;12.66;76.10;98366.73;110045;1274;1016694;-72
2022/09/08 04:04:00;;;;;;;11.70;6.60;;;;;;;12.60;76.43;98354.74;109872;1274;1017074;-72
2022/09/08 04:10:53;;;;;;;;;;;;;;;;;;;;;
2022/09/08 04:16:40;;;;;;;10.80;6.40;;;;;;;12.58;77.04;98362.70;110097;1274;1016165;-71
2022/09/08 04:22:08;;;;;;;9.90;6.70;;;;;;;12.64;77.11;98352.31;110006;1274;1017187;-71
2022/09/08 04:28:18;;;;;;;10.90;6.70;;;;;;;12.66;77.33;98346.14;110073;1274;1017048;-71
2022/09/08 04:34:18;;;;;;;9.80;6.30;;;;;;;12.72;77.23;98349.05;110226;1274;1016625;-70
2022/09/08 04:40:13;;;;;;;11.60;6.70;;;;;;;12.76;77.34;98351.50;109981;1275;1016578;-70
2022/09/08 04:46:27;;;;;;;12.80;7.10;;;;;;;12.91;77.35;98358.33;110100;1274;1016681;-71
2022/09/08 04:51:52;;;;;;;8.80;6.10;;;;;;;12.98;77.38;98356.95;109861;1274;1018330;-70
2022/09/08 04:57:56;;;;;;;10.60;6.90;;;;;;;13.07;77.50;98349.13;109991;1274;1017602;-71
2022/09/08 05:03:41;;;;;;;14.80;7.60;;;;;;;13.14;77.57;98351.09;110084;1273;1017844;-71
2022/09/08 05:09:36;;;;;;;13.90;7.20;;;;;;;13.24;77.55;98352.10;109991;1274;1018753;-71
2022/09/08 05:15:48;;;;;;;13.60;7.30;;;;;;;13.40;77.96;98354.36;110086;1274;1017352;-71
2022/09/08 05:21:17;;;;;;;14.10;8.60;;;;;;;13.60;77.79;98351.23;110113;1274;1016423;-71
2022/09/08 05:27:31;;;;;;;14.60;7.90;;;;;;;13.77;77.60;98343.84;110003;1274;1016711;-71
2022/09/08 05:33:34;;;;;;;12.20;7.60;;;;;;;13.94;77.58;98347.09;110129;1274;1016624;-70
2022/09/08 05:39:31;;;;;;;12.40;8.00;;;;;;;14.18;77.62;98346.13;109853;1276;1016471;-72
2022/09/08 05:45:31;;;;;;;13.70;7.90;;;;;;;14.45;77.80;98339.08;110072;1274;1016623;-72
2022/09/08 05:51:33;;;;;;;14.60;8.90;;;;;;;14.76;77.61;98342.76;110065;1274;1018997;-71
2022/09/08 05:57:51;;;;;;;13.20;7.40;;;;;;;15.01;77.21;98349.06;110103;1274;1016495;-71
2022/09/08 06:03:49;;;;;;;11.30;7.40;;;;;;;15.28;76.99;98349.24;110615;1274;1018805;-72
2022/09/08 06:09:12;;;;;;;14.90;8.10;;;;;;;15.56;76.64;98349.91;193629;1273;1016614;-72
2022/09/08 06:14:17;;;;;;;12.80;8.10;;;;;;;15.80;76.58;98359.48;221296;1273;22552;-72
2022/09/08 06:19:51;;;;;;;10.90;7.10;;;;;;;16.13;76.49;98358.29;155845;1274;1005226;-72
2022/09/08 06:25:01;;;;;;;11.80;7.00;;;;;;;16.43;76.05;98351.60;169239;1273;1016581;-73
2022/09/08 06:30:26;;;;;;;10.10;7.20;;;;;;;16.73;75.94;98344.66;142773;1273;1016447;-74
2022/09/08 06:36:36;;;;;;;14.20;8.00;;;;;;;17.01;75.49;98327.36;218643;1273;1002656;-75
2022/09/08 06:41:51;;;;;;;16.10;8.00;;;;;;;17.24;75.02;98326.33;216890;1273;1003560;-74
2022/09/08 06:47:02;;;;;;;12.10;7.90;;;;;;;17.42;74.71;98324.29;219945;1273;1002561;-75
2022/09/08 06:52:47;;;;;;;15.80;8.00;;;;;;;17.55;74.39;98321.38;219262;1273;1003032;-74
2022/09/08 06:58:32;;;;;;;11.40;7.30;;;;;;;17.72;74.08;98314.01;220795;1273;24239;-75
2022/09/08 07:03:52;;;;;;;12.40;7.30;;;;;;;17.86;73.88;98306.48;220749;1273;25318;-75
2022/09/08 07:09:54;;;;;;;12.20;7.20;;;;;;;18.03;73.33;98301.36;220908;1273;22590;-75
2022/09/08 07:15:59;;;;;;;12.10;7.10;;;;;;;18.22;73.50;98288.70;220809;1273;25298;-75
2022/09/08 07:21:48;;;;;;;11.20;7.20;;;;;;;18.51;73.23;98285.45;220101;1273;1002991;-74
2022/09/08 07:26:58;;;;;;;11.90;7.80;;;;;;;18.78;73.24;98274.40;220766;1271;22724;-72
2022/09/08 07:32:22;;;;;;;11.40;6.30;;;;;;;19.08;72.89;98274.17;217596;1273;1003622;-73
2022/09/08 07:38:17;;;;;;;8.30;6.80;;;;;;;19.35;72.46;98263.46;220598;1273;23147;-73
2022/09/08 07:43:31;;;;;;;10.50;7.60;;;;;;;19.54;71.95;98261.73;220579;1273;22582;-74
2022/09/08 07:48:56;;;;;;;9.50;6.70;;;;;;;19.75;72.10;98264.65;218077;1274;1003153;-73
2022/09/08 07:54:29;;;;;;;8.60;6.60;;;;;;;20.04;71.75;98272.76;219295;1273;1003102;-76
2022/09/08 07:59:55;;;;;;;11.40;6.90;;;;;;;20.37;71.56;98276.86;219204;1273;1003815;-73
2022/09/08 08:05:08;;;;;;;10.40;7.10;;;;;;;20.72;71.39;98279.52;220012;1271;1005917;-71
2022/09/08 08:10:25;;;;;;;10.00;7.20;;;;;;;20.98;70.78;98273.66;220986;1273;22712;-73
2022/09/08 08:15:52;;;;;;;10.10;7.90;;;;;;;21.22;70.32;98280.33;220651;1273;22712;-72
2022/09/08 08:21:29;;;;;;;8.90;7.90;;;;;;;21.40;69.86;98277.42;220870;1273;25260;-71
2022/09/08 08:27:02;;;;;;;9.70;7.30;;;;;;;21.60;69.43;98268.08;220712;1273;23799;-71
2022/09/08 08:32:17;;;;;;;8.50;7.20;;;;;;;21.79;69.12;98261.88;220583;1274;22565;-71
2022/09/08 08:38:02;;;;;;;12.60;8.20;;;;;;;22.00;68.73;98257.45;220685;1273;22720;-72
2022/09/08 08:43:10;;;;;;;9.90;7.30;;;;;;;22.25;68.49;98262.23;220509;1274;24218;-72
2022/09/08 08:49:12;;;;;;;10.60;7.70;;;;;;;22.44;67.97;98254.13;220645;1273;25322;-72
2022/09/08 08:55:05;;;;;;;9.00;6.90;;;;;;;22.68;67.93;98244.27;220622;1273;24160;-71
2022/09/08 09:00:38;;;;;;;8.50;7.60;;;;;;;22.97;67.06;98246.36;220718;1273;22541;-71
2022/09/08 09:06:19;;;;;;;10.10;8.60;;;;;;;23.21;66.65;98243.66;220504;1273;22724;-72
2022/09/08 09:12:51;;;;;;;10.30;8.20;;;;;;;23.47;66.51;98244.73;220964;1273;22608;-72
2022/09/08 09:18:41;;;;;;;9.10;8.10;;;;;;;23.70;65.63;98237.52;219959;1273;22591;-73
2022/09/08 09:24:27;;;;;;;11.50;9.00;;;;;;;23.89;65.32;98234.95;219779;1279;24238;-72
2022/09/08 09:29:41;;;;;;;10.20;9.20;;;;;;;24.04;65.04;98234.55;220469;1273;22548;-74
2022/09/08 09:35:41;;;;;;;12.20;9.30;;;;;;;24.27;64.72;98229.69;220584;1274;22607;-72
2022/09/08 09:41:39;;;;;;;10.20;9.00;;;;;;;24.50;64.00;98226.91;220539;1273;25519;-71
2022/09/08 09:47:16;;;;;;;10.60;9.30;;;;;;;24.66;63.38;98228.23;220398;1273;24871;-72
2022/09/08 09:53:30;;;;;;;11.00;9.60;;;;;;;24.78;62.65;98222.78;220755;1273;23265;-72
2022/09/08 09:59:02;;;;;;;13.60;11.10;;;;;;;24.90;62.44;98219.77;220261;1274;25926;-72
2022/09/08 10:04:34;;;;;;;10.50;9.50;;;;;;;25.11;62.28;98223.42;220713;1273;25385;-71
2022/09/08 10:09:41;;;;;;;14.00;10.40;;;;;;;25.31;61.71;98211.73;220939;1273;22634;-70
2022/09/08 10:15:24;;;;;;;11.30;10.10;;;;;;;25.52;61.30;98208.23;220724;1273;22543;-71
2022/09/08 10:20:52;;;;;;;14.20;12.80;;;;;;;25.73;60.01;98203.15;220806;1273;23397;-72
2022/09/08 10:26:28;;;;;;;11.70;10.60;;;;;;;25.85;59.53;98199.29;220646;1273;24882;-71
2022/09/08 10:32:10;;;;;;;11.40;10.30;;;;;;;26.12;59.13;98195.07;220868;1273;24388;-72
2022/09/08 10:37:45;;;;;;;11.20;10.10;;;;;;;26.44;58.41;98186.73;220544;1273;22632;-71
2022/09/08 10:43:26;;;;;;;11.70;10.00;;;;;;;26.78;57.87;98186.59;220851;1273;22546;-71
2022/09/08 10:48:59;;;;;;;11.50;10.40;;;;;;;27.08;57.41;98187.21;220741;1273;22557;-72
2022/09/08 10:54:34;;;;;;;10.20;9.10;;;;;;;27.27;56.27;98184.92;220724;1273;22985;-72
2022/09/08 10:59:42;;;;;;;12.30;9.60;;;;;;;27.34;55.58;98179.16;220601;1274;23499;-71
2022/09/08 11:05:26;;;;;;;11.00;9.90;;;;;;;27.37;55.46;98180.77;185149;1274;1005984;-71
2022/09/08 11:11:05;;;;;;;9.70;8.80;;;;;;;27.57;54.95;98178.91;220866;1273;24935;-71
2022/09/08 11:16:44;;;;;;;9.70;8.60;;;;;;;27.79;54.40;98181.69;220091;1273;1002362;-71
2022/09/08 11:22:04;;;;;;;10.90;9.50;;;;;;;27.91;53.94;98177.48;203076;1273;1003994;-71
2022/09/08 11:27:32;;;;;;;8.70;7.90;;;;;;;28.23;53.71;98177.97;215907;1273;1016134;-72
2022/09/08 11:32:43;;;;;;;10.00;8.90;;;;;;;28.59;52.25;98170.65;220746;1273;22551;-71
2022/09/08 11:38:04;;;;;;;9.70;8.70;;;;;;;28.68;51.54;98161.77;220762;1273;25292;-71
2022/09/08 11:43:43;;;;;;;8.80;8.00;;;;;;;28.65;50.79;98162.14;220768;1273;25622;-71
2022/09/08 11:49:23;;;;;;;9.10;8.30;;;;;;;28.34;50.12;98156.58;220478;1273;22603;-71
2022/09/08 11:55:15;;;;;;;9.80;8.90;;;;;;;28.19;50.53;98149.09;220521;1272;22596;-71
2022/09/08 12:00:39;;;;;;;11.00;9.20;;;;;;;28.13;50.56;98140.45;220686;1273;24337;-70
2022/09/08 12:06:45;;;;;;;11.00;9.20;;;;;;;28.12;51.46;98137.98;220916;1273;23132;-71
2022/09/08 12:12:20;;;;;;;10.30;9.30;;;;;;;28.35;51.62;98128.80;220829;1273;22936;-70
2022/09/08 12:18:14;;;;;;;8.70;8.00;;;;;;;28.57;51.15;98122.75;220738;1273;24246;-71
2022/09/08 12:24:11;;;;;;;9.20;7.70;;;;;;;28.76;49.50;98116.63;220894;1273;22550;-72
2022/09/08 12:29:33;;;;;;;11.70;10.10;;;;;;;28.78;49.15;98113.59;220739;1273;22925;-72
2022/09/08 12:34:54;;;;;;;10.10;9.20;;;;;;;28.76;49.11;98107.44;220849;1273;22604;-71
2022/09/08 12:40:30;;;;;;;9.30;8.50;;;;;;;28.83;49.16;98098.77;220785;1273;22759;-71
2022/09/08 12:45:43;;;;;;;10.60;9.70;;;;;;;28.85;48.63;98095.96;220573;1273;23181;-71
2022/09/08 12:51:00;;;;;;;10.20;9.30;;;;;;;28.79;48.96;98091.45;220707;1273;22569;-72
2022/09/08 12:56:15;;;;;;;12.00;10.90;;;;;;;28.80;49.05;98084.19;219880;1274;1003025;-71
2022/09/08 13:01:35;;;;;;;11.80;10.50;;;;;;;28.73;49.07;98068.83;220661;1273;24237;-71
2022/09/08 13:07:19;;;;;;;11.30;10.20;;;;;;;28.64;49.44;98060.36;220551;1273;22546;-72
2022/09/08 13:12:53;;;;;;;11.20;10.10;;;;;;;28.47;49.55;98051.42;220582;1273;24441;-72
2022/09/08 13:18:12;;;;;;;10.80;9.70;;;;;;;28.22;49.48;98038.35;220737;1273;22572;-72
2022/09/08 13:23:46;;;;;;;11.90;10.70;;;;;;;27.91;49.70;98030.61;220607;1274;22580;-72
2022/09/08 13:29:47;;;;;;;11.20;10.00;;;;;;;27.60;50.47;98024.42;221061;1273;26459;-72
2022/09/08 13:35:23;;;;;;;12.00;10.70;;;;;;;27.30;51.17;98031.30;221087;1273;23325;-73
2022/09/08 13:40:50;;;;;;;14.30;10.70;;;;;;;27.08;51.89;98040.37;220735;1273;22559;-72
2022/09/08 13:46:01;;;;;;;12.50;11.30;;;;;;;26.86;52.29;98026.04;219038;1273;1985693;-73
2022/09/08 13:51:37;;;;;;;12.60;10.80;;;;;;;26.55;53.53;98016.58;220840;1273;24141;-73
2022/09/08 13:57:26;;;;;;;15.60;10.80;;;;;;;26.17;54.79;98009.33;220356;1274;23062;-72
2022/09/08 14:03:11;;;;;;;14.60;11.00;;;;;;;25.78;56.59;98038.20;220773;1273;22562;-73
2022/09/08 14:09:09;;;;;;;24.50;14.10;;;;;;;25.14;60.08;98041.83;219105;1281;23348;-73
2022/09/08 14:14:42;;;;;;;19.20;14.00;;;;;;;24.22;64.33;98077.38;220509;1272;25427;-73
2022/09/08 14:20:23;;;;;;;33.00;22.60;;;;;;;23.00;69.10;98088.98;220133;1274;24311;-73
2022/09/08 14:25:39;;;;;;;14.90;10.20;;;;;;;22.00;70.98;98044.43;220372;1273;24218;-74
2022/09/08 14:31:04;;;;;;;15.10;12.30;;;;;;;21.20;72.76;98007.41;220480;1273;22545;-75
2022/09/08 14:36:51;;;;;;;13.20;11.00;;;;;;;20.43;75.67;98000.95;220431;1273;25374;-76
2022/09/08 14:42:22;;;;;;;13.40;11.10;;;;;;;20.02;77.34;98014.18;220651;1273;22544;-75
2022/09/08 14:48:52;;;;;;;11.20;8.10;;;;;;;19.72;78.83;97979.22;220855;1273;22577;-75
2022/09/08 14:55:27;;;;;;;;;;;;;;;;;;;;;
2022/09/08 15:01:17;;;;;;;13.50;9.00;;;;;;;18.79;81.46;97955.44;220887;1273;24313;-76
2022/09/08 15:06:49;;;;;;;13.90;10.50;;;;;;;18.35;82.13;97997.52;220659;1273;22482;-75
2022/09/08 15:12:17;;;;;;;20.80;10.10;;;;;;;17.99;83.69;98045.98;220798;1273;24425;-78
2022/09/08 15:17:53;;;;;;;10.10;7.00;;;;;;;17.64;84.95;98017.13;221323;1273;22702;-80
2022/09/08 15:23:27;;;;;;;10.10;7.90;;;;;;;17.30;86.76;97978.77;221643;1273;25257;-81
2022/09/08 15:29:28;;;;;;;11.10;7.80;;;;;;;17.09;87.66;97983.27;221434;1273;22548;-80
2022/09/08 15:35:08;;;;;;;14.90;9.30;;;;;;;17.01;88.45;98001.31;222796;1273;23837;-82
2022/09/08 15:41:58;;;;;;;;;;;;;;;;;;;;;
2022/09/08 15:47:46;;;;;;;18.20;12.90;;;;;;;16.79;91.60;98054.90;123792;1274;1005701;-81
2022/09/08 15:53:28;;;;;;;18.60;13.80;;;;;;;16.95;92.82;97981.52;110583;1273;1017846;-77
2022/09/08 15:59:14;;;;;;;20.90;15.70;;;;;;;17.10;92.86;97988.85;110449;1273;1016322;-77
2022/09/08 16:05:17;;;;;;;18.70;13.10;;;;;;;17.13;93.34;97999.89;110042;1273;1018870;-76
2022/09/08 16:11:00;;;;;;;20.20;12.20;;;;;;;17.14;93.56;97992.70;109963;1274;1017765;-77
2022/09/08 16:17:24;;;;;;;18.60;14.20;;;;;;;17.08;93.75;97971.73;109973;1274;1016473;-76
2022/09/08 16:23:21;;;;;;;21.00;14.40;;;;;;;17.12;94.06;97967.39;109976;1273;1016571;-78
2022/09/08 16:29:06;;;;;;;26.70;17.70;;;;;;;17.15;94.58;97962.21;110124;1273;1017749;-77
2022/09/08 16:35:12;;;;;;;26.00;16.30;;;;;;;17.21;94.88;97943.86;110281;1273;1016596;-76
2022/09/08 16:41:41;;;;;;;23.80;15.70;;;;;;;17.29;95.25;97935.14;109937;1273;1016815;-78
2022/09/08 16:47:23;;;;;;;20.00;14.70;;;;;;;17.37;95.63;97935.92;109775;1275;1016781;-77
2022/09/08 16:53:47;;;;;;;25.70;16.20;;;;;;;17.45;95.96;97953.13;110176;1273;1018638;-79
2022/09/08 16:59:58;;;;;;;34.90;19.40;;;;;;;17.50;96.44;98013.11;110618;1273;1016509;-82
2022/09/08 17:06:03;;;;;;;17.50;13.10;;;;;;;17.49;97.20;98041.88;110526;1273;1016480;-82
2022/09/08 17:11:17;;;;;;;17.90;12.80;;;;;;;17.40;98.15;98037.92;109868;1279;1016702;-81
2022/09/08 17:17:30;;;;;;;;;;;;;;;;;;;;;
2022/09/08 17:23:08;;;;;;;16.90;12.30;;;;;;;17.29;98.61;98056.72;121733;1281;1017874;-83
2022/09/08 17:28:18;;;;;;;18.50;12.80;;;;;;;17.29;99.14;98041.78;220587;1275;22539;-81
2022/09/08 17:33:55;;;;;;;17.60;11.20;;;;;;;17.28;99.34;98054.30;221296;1273;23846;-79
2022/09/08 17:39:00;;;;;;;14.90;10.80;;;;;;;17.28;99.49;98066.13;221336;1273;22548;-79
2022/09/08 17:44:20;;;;;;;13.70;9.60;;;;;;;17.29;99.70;98076.74;221442;1273;22633;-80
2022/09/08 17:50:02;;;;;;;15.00;11.80;;;;;;;17.28;99.86;98096.53;221018;1273;22791;-84
2022/09/08 17:55:27;;;;;;;13.20;10.20;;;;;;;17.29;100.00;98132.66;221116;1273;25257;-80
2022/09/08 18:01:21;;;;;;;13.70;10.40;;;;;;;17.31;100.00;98142.36;204240;1273;1005770;-81
2022/09/08 18:06:50;;;;;;;21.70;14.40;;;;;;;17.33;100.00;98143.73;110324;1273;1016534;-81
2022/09/08 18:12:24;;;;;;;23.60;15.50;;;;;;;17.35;100.00;98152.45;110531;1273;1017014;-83
2022/09/08 18:17:49;;;;;;;22.00;14.90;;;;;;;17.39;100.00;98157.88;110256;1273;1016385;-83
2022/09/08 18:23:43;;;;;;;27.20;17.90;;;;;;;17.43;100.00;98150.88;110390;1273;1018375;-82
2022/09/08 18:29:19;;;;;;;21.20;13.40;;;;;;;17.45;100.00;98153.55;109978;1273;1018127;-82
2022/09/08 18:34:39;;;;;;;15.60;11.60;;;;;;;17.46;100.00;98185.45;110381;1274;1016612;-81
2022/09/08 18:39:44;;;;;;;18.70;13.80;;;;;;;17.44;100.00;98199.40;110262;1275;1018894;-80
2022/09/08 18:45:16;;;;;;;16.70;13.90;;;;;;;17.44;100.00;98190.95;189322;1273;1015910;-82
2022/09/08 18:51:13;;;;;;;;;;;;;;;;;;;;;
2022/09/08 18:56:53;;;;;;;13.30;11.50;;;;;;;17.48;100.00;98185.42;221007;1273;22597;-82
2022/09/08 19:02:44;;;;;;;14.80;11.70;;;;;;;17.51;100.00;98196.77;221223;1273;22557;-83
2022/09/08 19:08:36;;;;;;;15.70;12.70;;;;;;;17.50;100.00;98209.69;221116;1273;25474;-82
2022/09/08 19:13:59;;;;;;;15.00;11.90;;;;;;;17.48;100.00;98201.02;221397;1273;25380;-81
2022/09/08 19:20:05;;;;;;;14.30;11.10;;;;;;;17.45;100.00;98189.67;221354;1273;22670;-83
2022/09/08 19:25:29;;;;;;;15.40;12.00;;;;;;;17.41;100.00;98181.29;220027;1281;25373;-82
2022/09/08 19:31:10;;;;;;;16.80;11.70;;;;;;;17.37;100.00;98179.58;220775;1275;23129;-82
2022/09/08 19:37:17;;;;;;;16.50;12.10;;;;;;;17.34;100.00;98181.58;220767;1275;22608;-81
2022/09/08 19:44:01;;;;;;;12.10;10.80;;;;;;;17.29;100.00;98189.12;221322;1274;23027;-81
2022/09/08 19:50:40;;;;;;;15.30;11.60;;;;;;;17.26;100.00;98193.60;220972;1274;22537;-82
2022/09/08 19:57:02;;;;;;;12.80;9.90;;;;;;;17.23;100.00;98206.36;221093;1273;22711;-80
2022/09/08 20:04:13;;;;;;;15.20;11.70;;;;;;;17.19;100.00;98215.38;220862;1276;25246;-81
2022/09/08 20:09:44;;;;;;;14.50;11.80;;;;;;;17.18;100.00;98221.16;220494;1278;24619;-81
2022/09/08 20:15:39;;;;;;;18.10;12.50;;;;;;;17.16;100.00;98217.15;220778;1276;22604;-80
2022/09/08 20:22:11;;;;;;;15.90;11.90;;;;;;;17.15;100.00;98216.73;220659;1276;22538;-80
2022/09/08 20:28:28;;;;;;;15.20;11.10;;;;;;;17.11;100.00;98215.33;221208;1273;24259;-82
2022/09/08 20:34:15;;;;;;;13.20;10.60;;;;;;;17.08;100.00;98219.95;221389;1273;22576;-80
2022/09/08 20:40:51;;;;;;;15.50;11.00;;;;;;;17.07;100.00;98224.95;221020;1273;22536;-79
2022/09/08 20:47:14;;;;;;;11.10;9.30;;;;;;;17.05;100.00;98248.54;220679;1274;24123;-80
2022/09/08 20:53:47;;;;;;;11.60;9.70;;;;;;;17.03;100.00;98254.36;221394;1273;24319;-79
2022/09/08 20:59:29;;;;;;;17.10;11.70;;;;;;;17.01;100.00;98268.76;220898;1275;24155;-79
2022/09/08 21:05:06;;;;;;;;;;;;;;;;;;;;;
2022/09/08 21:11:31;;;;;;;14.30;11.30;;;;;;;17.02;100.00;98279.63;221686;1273;22532;-79
2022/09/08 21:17:21;;;;;;;13.10;10.40;;;;;;;17.01;100.00;98279.27;219418;1279;1002546;-82
2022/09/08 21:23:19;;;;;;;13.20;10.60;;;;;;;16.98;100.00;98290.18;221441;1273;22533;-80
2022/09/08 21:28:56;;;;;;;12.60;9.90;;;;;;;16.97;100.00;98293.73;221365;1273;22570;-80
2022/09/08 21:34:28;;;;;;;13.20;9.90;;;;;;;16.95;100.00;98308.63;221171;1273;22545;-82
2022/09/08 21:40:22;;;;;;;14.10;10.70;;;;;;;16.92;100.00;98301.52;221083;1274;22587;-81
2022/09/08 21:45:52;;;;;;;9.80;8.60;;;;;;;16.87;100.00;98288.23;221216;1273;22641;-81
2022/09/08 21:51:15;;;;;;;10.20;8.10;;;;;;;16.83;100.00;98287.93;221425;1273;25355;-81
2022/09/08 21:57:54;;;;;;;;;;;;;;;;;;;;;
2022/09/08 22:04:14;;;;;;;7.60;6.70;;;;;;;16.73;100.00;98311.13;220792;1273;25376;-81
2022/09/08 22:10:02;;;;;;;10.60;7.20;;;;;;;16.70;100.00;98309.09;221311;1273;25492;-82
2022/09/08 22:16:17;;;;;;;7.90;6.90;;;;;;;16.67;100.00;98312.88;221285;1274;22701;-83
2022/09/08 22:22:03;;;;;;;8.10;7.00;;;;;;;16.62;100.00;98316.67;221244;1274;22732;-79
2022/09/08 22:28:29;;;;;;;;;;;;;;;;;;;;;
2022/09/08 22:34:18;;;;;;;5.90;5.10;;;;;;;16.55;100.00;98327.27;221190;1274;22547;-82
2022/09/08 22:40:00;;;;;;;5.70;5.20;;;;;;;16.54;100.00;98323.63;221232;1274;24778;-80
2022/09/08 22:46:17;;;;;;;6.70;5.40;;;;;;;16.52;100.00;98324.08;221308;1274;22505;-80
2022/09/08 22:53:22;;;;;;;;;;;;;;;;;;;;;
2022/09/08 23:00:21;;;;;;;7.00;6.30;;;;;;;16.46;100.00;98322.52;220869;1273;24159;-79
2022/09/08 23:06:35;;;;;;;8.40;5.90;;;;;;;16.44;100.00;98323.70;221205;1274;22547;-80
2022/09/08 23:13:14;;;;;;;9.10;7.50;;;;;;;16.38;100.00;98324.80;221068;1274;23299;-79
2022/09/08 23:19:01;;;;;;;;;;;;;;;16.26;100.00;98332.92;220817;1274;25467;-79
2022/09/08 23:32:11;;;;;;;;;;;;;;;;;;;;;
2022/09/08 23:38:49;;;;;;;13.70;8.20;;;;;;;16.00;100.00;98327.85;209647;1274;1003911;-78
2022/09/08 23:45:00;;;;;;;11.30;7.90;;;;;;;15.91;100.00;98327.83;221286;1274;22609;-79
2022/09/08 23:50:33;;;;;;;9.50;7.60;;;;;;;15.84;100.00;98328.22;221044;1274;24133;-80
2022/09/08 23:56:21;;;;;;;9.50;8.00;;;;;;;15.79;100.00;98327.02;221069;1274;26483;-79
